sensor_id;sensor_type;location;lat;lon;timestamp;pressure;altitude;pressure_sealevel;temperature;humidity
84261;BME280;74405;44.868;18.808;2023-12-20T00:00:25;100709.97;;;-0.47;88.30
84261;BME280;74405;44.868;18.808;2023-12-20T00:02:51;100706.50;;;-0.49;88.76
84261;BME280;74405;44.868;18.808;2023-12-20T00:05:17;100693.56;;;-0.55;88.22
84261;BME280;74405;44.868;18.808;2023-12-20T00:07:42;100697.03;;;-0.50;88.76
84261;BME280;74405;44.868;18.808;2023-12-20T00:10:08;100703.91;;;-0.55;88.53
84261;BME280;74405;44.868;18.808;2023-12-20T00:12:34;100692.69;;;-0.57;88.69
84261;BME280;74405;44.868;18.808;2023-12-20T00:14:59;100689.22;;;-0.61;88.49
84261;BME280;74405;44.868;18.808;2023-12-20T00:17:25;100689.19;;;-0.63;89.04
84261;BME280;74405;44.868;18.808;2023-12-20T00:19:51;100684.03;;;-0.64;89.16
84261;BME280;74405;44.868;18.808;2023-12-20T00:22:16;100680.59;;;-0.65;88.66
84261;BME280;74405;44.868;18.808;2023-12-20T00:24:42;100677.13;;;-0.67;88.57
84261;BME280;74405;44.868;18.808;2023-12-20T00:27:07;100675.44;;;-0.60;88.41
84261;BME280;74405;44.868;18.808;2023-12-20T00:29:33;100671.97;;;-0.65;88.22
84261;BME280;74405;44.868;18.808;2023-12-20T00:31:59;100679.72;;;-0.67;88.82
84261;BME280;74405;44.868;18.808;2023-12-20T00:34:24;100673.69;;;-0.64;88.78
84261;BME280;74405;44.868;18.808;2023-12-20T00:36:50;100674.63;;;-0.57;88.89
84261;BME280;74405;44.868;18.808;2023-12-20T00:39:15;100666.88;;;-0.57;89.03
84261;BME280;74405;44.868;18.808;2023-12-20T00:41:41;100661.72;;;-0.51;90.03
84261;BME280;74405;44.868;18.808;2023-12-20T00:44:07;100654.84;;;-0.46;89.25
84261;BME280;74405;44.868;18.808;2023-12-20T00:46:32;100648.00;;;-0.38;88.85
84261;BME280;74405;44.868;18.808;2023-12-20T00:48:58;100652.31;;;-0.36;88.56
84261;BME280;74405;44.868;18.808;2023-12-20T00:51:23;100641.13;;;-0.38;88.45
84261;BME280;74405;44.868;18.808;2023-12-20T00:53:50;100646.28;;;-0.39;88.43
84261;BME280;74405;44.868;18.808;2023-12-20T00:56:15;100640.31;;;-0.29;88.43
84261;BME280;74405;44.868;18.808;2023-12-20T00:58:41;100643.75;;;-0.27;88.34
84261;BME280;74405;44.868;18.808;2023-12-20T01:01:07;100640.31;;;-0.23;88.50
84261;BME280;74405;44.868;18.808;2023-12-20T01:03:32;100632.56;;;-0.17;89.53
84261;BME280;74405;44.868;18.808;2023-12-20T01:05:58;100632.63;;;-0.11;89.69
84261;BME280;74405;44.868;18.808;2023-12-20T01:08:24;100625.72;;;-0.06;90.01
84261;BME280;74405;44.868;18.808;2023-12-20T01:10:49;100627.44;;;-0.05;90.30
84261;BME280;74405;44.868;18.808;2023-12-20T01:13:15;100625.75;;;0.01;90.07
84261;BME280;74405;44.868;18.808;2023-12-20T01:15:40;100623.13;;;-0.07;90.20
84261;BME280;74405;44.868;18.808;2023-12-20T01:18:07;100619.69;;;-0.06;89.84
84261;BME280;74405;44.868;18.808;2023-12-20T01:20:32;100624.84;;;-0.03;90.28
84261;BME280;74405;44.868;18.808;2023-12-20T01:22:58;100617.09;;;-0.05;90.26
84261;BME280;74405;44.868;18.808;2023-12-20T01:25:23;100610.22;;;-0.01;91.10
84261;BME280;74405;44.868;18.808;2023-12-20T01:27:49;100611.97;;;0.02;90.61
84261;BME280;74405;44.868;18.808;2023-12-20T01:30:15;100605.94;;;0.01;90.97
84261;BME280;74405;44.868;18.808;2023-12-20T01:32:41;100601.59;;;-0.02;90.63
84261;BME280;74405;44.868;18.808;2023-12-20T01:35:07;100599.03;;;0.05;90.93
84261;BME280;74405;44.868;18.808;2023-12-20T01:37:32;100603.34;;;0.04;90.62
84261;BME280;74405;44.868;18.808;2023-12-20T01:39:58;100602.47;;;0.04;91.18
84261;BME280;74405;44.868;18.808;2023-12-20T01:42:24;100595.59;;;0.01;91.04
84261;BME280;74405;44.868;18.808;2023-12-20T01:44:50;100587.84;;;0.03;91.18
84261;BME280;74405;44.868;18.808;2023-12-20T01:47:16;100593.88;;;0.03;90.62
84261;BME280;74405;44.868;18.808;2023-12-20T01:49:42;100584.38;;;0.07;91.07
84261;BME280;74405;44.868;18.808;2023-12-20T01:52:08;100582.63;;;-0.01;90.67
84261;BME280;74405;44.868;18.808;2023-12-20T01:54:34;100580.91;;;-0.03;90.90
84261;BME280;74405;44.868;18.808;2023-12-20T01:57:01;100578.31;;;-0.08;90.24
84261;BME280;74405;44.868;18.808;2023-12-20T01:59:28;100568.81;;;-0.18;89.53
84261;BME280;74405;44.868;18.808;2023-12-20T02:01:54;100564.50;;;-0.16;89.90
84261;BME280;74405;44.868;18.808;2023-12-20T02:04:20;100562.78;;;-0.20;89.41
84261;BME280;74405;44.868;18.808;2023-12-20T02:06:46;100552.44;;;-0.26;89.73
84261;BME280;74405;44.868;18.808;2023-12-20T02:09:11;100552.44;;;-0.26;90.42
84261;BME280;74405;44.868;18.808;2023-12-20T02:11:37;100549.00;;;-0.23;90.58
84261;BME280;74405;44.868;18.808;2023-12-20T02:14:03;100554.16;;;-0.17;90.51
84261;BME280;74405;44.868;18.808;2023-12-20T02:16:29;100548.16;;;-0.15;91.17
84261;BME280;74405;44.868;18.808;2023-12-20T02:18:55;100542.13;;;-0.14;90.90
84261;BME280;74405;44.868;18.808;2023-12-20T02:21:25;100532.66;;;-0.06;90.79
84261;BME280;74405;44.868;18.808;2023-12-20T02:23:51;100529.19;;;-0.02;90.95
84261;BME280;74405;44.868;18.808;2023-12-20T02:26:16;100525.75;;;-0.05;91.43
84261;BME280;74405;44.868;18.808;2023-12-20T02:28:44;100521.44;;;-0.06;91.16
84261;BME280;74405;44.868;18.808;2023-12-20T02:31:09;100522.31;;;-0.10;91.52
84261;BME280;74405;44.868;18.808;2023-12-20T02:33:35;100522.31;;;-0.09;91.09
84261;BME280;74405;44.868;18.808;2023-12-20T02:36:00;100507.66;;;-0.14;91.34
84261;BME280;74405;44.868;18.808;2023-12-20T02:38:26;100517.13;;;-0.22;91.01
84261;BME280;74405;44.868;18.808;2023-12-20T02:40:52;100504.19;;;-0.24;91.31
84261;BME280;74405;44.868;18.808;2023-12-20T02:43:17;100513.63;;;-0.32;90.71
84261;BME280;74405;44.868;18.808;2023-12-20T02:45:43;100510.19;;;-0.33;91.34
84261;BME280;74405;44.868;18.808;2023-12-20T02:48:09;100500.75;;;-0.29;90.96
84261;BME280;74405;44.868;18.808;2023-12-20T02:50:34;100500.72;;;-0.34;91.15
84261;BME280;74405;44.868;18.808;2023-12-20T02:53:00;100497.28;;;-0.37;91.03
84261;BME280;74405;44.868;18.808;2023-12-20T02:55:26;100488.66;;;-0.35;91.95
84261;BME280;74405;44.868;18.808;2023-12-20T02:57:51;100491.25;;;-0.32;91.28
84261;BME280;74405;44.868;18.808;2023-12-20T03:00:17;100485.22;;;-0.32;91.10
84261;BME280;74405;44.868;18.808;2023-12-20T03:02:43;100476.59;;;-0.39;90.56
84261;BME280;74405;44.868;18.808;2023-12-20T03:05:08;100472.28;;;-0.43;91.28
84261;BME280;74405;44.868;18.808;2023-12-20T03:07:34;100468.81;;;-0.46;90.43
84261;BME280;74405;44.868;18.808;2023-12-20T03:10:01;100462.78;;;-0.59;90.24
84261;BME280;74405;44.868;18.808;2023-12-20T03:12:27;100463.59;;;-0.72;89.98
84261;BME280;74405;44.868;18.808;2023-12-20T03:14:53;100461.84;;;-0.85;90.59
84261;BME280;74405;44.868;18.808;2023-12-20T03:17:18;100456.63;;;-0.92;90.50
84261;BME280;74405;44.868;18.808;2023-12-20T03:19:45;100456.63;;;-0.98;90.78
84261;BME280;74405;44.868;18.808;2023-12-20T03:22:10;100460.06;;;-1.00;90.15
84261;BME280;74405;44.868;18.808;2023-12-20T03:24:36;100456.56;;;-1.11;89.86
84261;BME280;74405;44.868;18.808;2023-12-20T03:27:01;100452.25;;;-1.14;90.38
84261;BME280;74405;44.868;18.808;2023-12-20T03:29:27;100455.66;;;-1.20;90.58
84261;BME280;74405;44.868;18.808;2023-12-20T03:31:53;100454.78;;;-1.20;90.45
84261;BME280;74405;44.868;18.808;2023-12-20T03:34:18;100450.50;;;-1.23;90.58
84261;BME280;74405;44.868;18.808;2023-12-20T03:36:44;100445.31;;;-1.30;90.15
84261;BME280;74405;44.868;18.808;2023-12-20T03:39:09;100440.09;;;-1.35;90.68
84261;BME280;74405;44.868;18.808;2023-12-20T03:41:35;100441.81;;;-1.35;90.83
84261;BME280;74405;44.868;18.808;2023-12-20T03:44:01;100440.09;;;-1.39;90.52
84261;BME280;74405;44.868;18.808;2023-12-20T03:46:26;100440.94;;;-1.45;90.21
84261;BME280;74405;44.868;18.808;2023-12-20T03:48:52;100436.63;;;-1.47;90.71
84261;BME280;74405;44.868;18.808;2023-12-20T03:51:18;100440.03;;;-1.52;90.86
84261;BME280;74405;44.868;18.808;2023-12-20T03:53:43;100435.72;;;-1.53;91.01
84261;BME280;74405;44.868;18.808;2023-12-20T03:56:09;100434.00;;;-1.49;90.63
84261;BME280;74405;44.868;18.808;2023-12-20T03:58:34;100424.59;;;-1.41;90.72
84261;BME280;74405;44.868;18.808;2023-12-20T04:01:00;100423.81;;;-1.32;91.20
84261;BME280;74405;44.868;18.808;2023-12-20T04:03:26;100423.81;;;-1.28;90.38
84261;BME280;74405;44.868;18.808;2023-12-20T04:05:51;100423.00;;;-1.17;91.37
84261;BME280;74405;44.868;18.808;2023-12-20T04:08:17;100406.66;;;-1.12;91.08
84261;BME280;74405;44.868;18.808;2023-12-20T04:10:42;100411.84;;;-1.07;90.61
84261;BME280;74405;44.868;18.808;2023-12-20T04:13:08;100411.88;;;-1.01;90.74
84261;BME280;74405;44.868;18.808;2023-12-20T04:15:34;100411.88;;;-0.98;91.16
84261;BME280;74405;44.868;18.808;2023-12-20T04:17:59;100415.31;;;-0.96;90.69
84261;BME280;74405;44.868;18.808;2023-12-20T04:20:25;100409.31;;;-0.94;90.67
84261;BME280;74405;44.868;18.808;2023-12-20T04:22:51;100407.59;;;-0.90;90.79
84261;BME280;74405;44.868;18.808;2023-12-20T04:25:16;100407.59;;;-0.93;91.23
84261;BME280;74405;44.868;18.808;2023-12-20T04:27:42;100398.97;;;-0.92;91.09
84261;BME280;74405;44.868;18.808;2023-12-20T04:30:08;100405.00;;;-0.93;91.54
84261;BME280;74405;44.868;18.808;2023-12-20T04:32:34;100397.25;;;-0.99;91.33
84261;BME280;74405;44.868;18.808;2023-12-20T04:35:00;100392.09;;;-1.02;91.20
84261;BME280;74405;44.868;18.808;2023-12-20T04:37:25;100388.66;;;-1.01;91.35
84261;BME280;74405;44.868;18.808;2023-12-20T04:39:51;100385.22;;;-0.97;91.71
84261;BME280;74405;44.868;18.808;2023-12-20T04:42:16;100388.66;;;-0.92;91.57
84261;BME280;74405;44.868;18.808;2023-12-20T04:44:42;100391.25;;;-0.92;91.53
84261;BME280;74405;44.868;18.808;2023-12-20T04:47:09;100390.41;;;-0.86;91.49
84261;BME280;74405;44.868;18.808;2023-12-20T04:49:34;100374.88;;;-0.90;90.98
84261;BME280;74405;44.868;18.808;2023-12-20T04:52:00;100381.81;;;-0.87;91.20
84261;BME280;74405;44.868;18.808;2023-12-20T04:54:26;100381.81;;;-0.85;91.52
84261;BME280;74405;44.868;18.808;2023-12-20T04:56:51;100384.38;;;-0.82;91.48
84261;BME280;74405;44.868;18.808;2023-12-20T04:59:17;100373.19;;;-0.83;91.64
84261;BME280;74405;44.868;18.808;2023-12-20T05:01:43;100372.34;;;-0.85;91.44
84261;BME280;74405;44.868;18.808;2023-12-20T05:04:08;100363.72;;;-0.79;91.20
84261;BME280;74405;44.868;18.808;2023-12-20T05:06:34;100368.88;;;-0.81;90.71
84261;BME280;74405;44.868;18.808;2023-12-20T05:08:59;100364.59;;;-0.80;90.89
84261;BME280;74405;44.868;18.808;2023-12-20T05:11:25;100362.00;;;-0.83;90.96
84261;BME280;74405;44.868;18.808;2023-12-20T05:13:51;100364.59;;;-0.85;91.09
84261;BME280;74405;44.868;18.808;2023-12-20T05:16:16;100359.41;;;-0.93;90.92
84261;BME280;74405;44.868;18.808;2023-12-20T05:18:48;100361.13;;;-0.93;91.07
84261;BME280;74405;44.868;18.808;2023-12-20T05:21:18;100357.69;;;-0.98;91.22
84261;BME280;74405;44.868;18.808;2023-12-20T05:23:44;100348.22;;;-1.01;91.42
84261;BME280;74405;44.868;18.808;2023-12-20T05:26:09;100357.63;;;-1.04;91.03
84261;BME280;74405;44.868;18.808;2023-12-20T05:28:35;100354.22;;;-0.99;91.29
84261;BME280;74405;44.868;18.808;2023-12-20T05:31:01;100351.66;;;-0.94;91.21
84261;BME280;74405;44.868;18.808;2023-12-20T05:33:27;100352.50;;;-0.98;90.90
84261;BME280;74405;44.868;18.808;2023-12-20T05:35:52;100351.66;;;-0.94;90.97
84261;BME280;74405;44.868;18.808;2023-12-20T05:38:18;100349.06;;;-1.02;90.77
84261;BME280;74405;44.868;18.808;2023-12-20T05:40:44;100352.50;;;-1.03;90.94
84261;BME280;74405;44.868;18.808;2023-12-20T05:43:09;100349.94;;;-1.03;90.79
84261;BME280;74405;44.868;18.808;2023-12-20T05:45:35;100355.91;;;-1.10;90.58
84261;BME280;74405;44.868;18.808;2023-12-20T05:48:00;100354.19;;;-1.15;90.22
84261;BME280;74405;44.868;18.808;2023-12-20T05:50:26;100355.91;;;-1.10;90.99
84261;BME280;74405;44.868;18.808;2023-12-20T05:52:52;100356.78;;;-1.12;90.92
84261;BME280;74405;44.868;18.808;2023-12-20T05:55:17;100343.88;;;-1.05;91.38
84261;BME280;74405;44.868;18.808;2023-12-20T05:57:43;100346.50;;;-0.96;91.32
84261;BME280;74405;44.868;18.808;2023-12-20T06:00:09;100353.38;;;-0.92;91.49
84261;BME280;74405;44.868;18.808;2023-12-20T06:02:39;100343.94;;;-0.77;91.84
84261;BME280;74405;44.868;18.808;2023-12-20T06:05:05;100338.75;;;-0.76;91.98
84261;BME280;74405;44.868;18.808;2023-12-20T06:07:31;100337.91;;;-0.76;92.00
84261;BME280;74405;44.868;18.808;2023-12-20T06:09:59;100345.69;;;-0.73;91.37
84261;BME280;74405;44.868;18.808;2023-12-20T06:12:25;100337.94;;;-0.72;92.14
84261;BME280;74405;44.868;18.808;2023-12-20T06:14:52;100331.91;;;-0.68;91.82
84261;BME280;74405;44.868;18.808;2023-12-20T06:17:18;100325.00;;;-0.63;91.77
84261;BME280;74405;44.868;18.808;2023-12-20T06:19:45;100326.72;;;-0.66;91.57
84261;BME280;74405;44.868;18.808;2023-12-20T06:22:15;100330.16;;;-0.61;91.58
84261;BME280;74405;44.868;18.808;2023-12-20T06:24:41;100325.00;;;-0.61;91.98
84261;BME280;74405;44.868;18.808;2023-12-20T06:27:06;100325.88;;;-0.62;92.08
84261;BME280;74405;44.868;18.808;2023-12-20T06:29:32;100316.38;;;-0.60;91.93
84261;BME280;74405;44.868;18.808;2023-12-20T06:32:00;100331.91;;;-0.69;92.04
84261;BME280;74405;44.868;18.808;2023-12-20T06:34:25;100335.31;;;-0.76;91.36
84261;BME280;74405;44.868;18.808;2023-12-20T06:36:51;100328.47;;;-0.74;92.07
84261;BME280;74405;44.868;18.808;2023-12-20T06:39:17;100332.75;;;-0.72;91.69
84261;BME280;74405;44.868;18.808;2023-12-20T06:41:42;100331.91;;;-0.72;91.91
84261;BME280;74405;44.868;18.808;2023-12-20T06:44:12;100339.66;;;-0.69;92.04
84261;BME280;74405;44.868;18.808;2023-12-20T06:46:38;100346.50;;;-0.77;91.70
84261;BME280;74405;44.868;18.808;2023-12-20T06:49:04;100358.59;;;-0.69;91.82
84261;BME280;74405;44.868;18.808;2023-12-20T06:51:30;100352.56;;;-0.69;91.06
84261;BME280;74405;44.868;18.808;2023-12-20T06:53:56;100355.09;;;-0.94;89.90
84261;BME280;74405;44.868;18.808;2023-12-20T06:56:22;100356.81;;;-0.97;90.00
84261;BME280;74405;44.868;18.808;2023-12-20T06:58:50;100351.66;;;-0.99;89.83
84261;BME280;74405;44.868;18.808;2023-12-20T07:01:15;100353.38;;;-0.99;89.51
84261;BME280;74405;44.868;18.808;2023-12-20T07:03:41;100350.78;;;-1.02;89.38
84261;BME280;74405;44.868;18.808;2023-12-20T07:06:08;100352.50;;;-0.95;89.45
84261;BME280;74405;44.868;18.808;2023-12-20T07:08:34;100352.47;;;-1.06;89.13
84261;BME280;74405;44.868;18.808;2023-12-20T07:10:59;100350.78;;;-0.92;89.80
84261;BME280;74405;44.868;18.808;2023-12-20T07:13:25;100347.34;;;-0.94;89.40
84261;BME280;74405;44.868;18.808;2023-12-20T07:15:51;100345.66;;;-0.88;89.82
84261;BME280;74405;44.868;18.808;2023-12-20T07:18:17;100349.97;;;-0.89;89.84
84261;BME280;74405;44.868;18.808;2023-12-20T07:20:43;100344.78;;;-0.80;89.66
84261;BME280;74405;44.868;18.808;2023-12-20T07:23:09;100350.78;;;-0.90;88.63
84261;BME280;74405;44.868;18.808;2023-12-20T07:25:35;100344.78;;;-0.98;88.11
84261;BME280;74405;44.868;18.808;2023-12-20T07:28:01;100345.66;;;-0.88;88.60
84261;BME280;74405;44.868;18.808;2023-12-20T07:30:26;100356.84;;;-0.85;88.97
84261;BME280;74405;44.868;18.808;2023-12-20T07:32:52;100356.84;;;-0.86;88.83
84261;BME280;74405;44.868;18.808;2023-12-20T07:35:18;100358.53;;;-0.95;88.40
84261;BME280;74405;44.868;18.808;2023-12-20T07:37:44;100354.22;;;-0.91;88.47
84261;BME280;74405;44.868;18.808;2023-12-20T07:40:10;100349.94;;;-0.92;88.97
84261;BME280;74405;44.868;18.808;2023-12-20T07:42:36;100351.66;;;-0.90;89.13
84261;BME280;74405;44.868;18.808;2023-12-20T07:45:02;100338.75;;;-0.76;88.93
84261;BME280;74405;44.868;18.808;2023-12-20T07:47:28;100343.06;;;-0.75;89.50
84261;BME280;74405;44.868;18.808;2023-12-20T07:49:53;100343.94;;;-0.79;89.63
84261;BME280;74405;44.868;18.808;2023-12-20T07:52:21;100340.47;;;-0.76;90.12
84261;BME280;74405;44.868;18.808;2023-12-20T07:54:50;100335.34;;;-0.63;89.61
84261;BME280;74405;44.868;18.808;2023-12-20T07:57:17;100338.78;;;-0.56;89.17
84261;BME280;74405;44.868;18.808;2023-12-20T07:59:43;100331.91;;;-0.48;88.23
84261;BME280;74405;44.868;18.808;2023-12-20T08:02:09;100330.16;;;-0.49;88.51
84261;BME280;74405;44.868;18.808;2023-12-20T08:04:36;100329.31;;;-0.40;88.68
84261;BME280;74405;44.868;18.808;2023-12-20T08:07:03;100333.63;;;-0.36;87.69
84261;BME280;74405;44.868;18.808;2023-12-20T08:09:30;100326.69;;;-0.16;88.12
84261;BME280;74405;44.868;18.808;2023-12-20T08:12:02;100326.63;;;0.12;87.15
84261;BME280;74405;44.868;18.808;2023-12-20T08:14:29;100327.50;;;0.09;86.44
84261;BME280;74405;44.868;18.808;2023-12-20T08:16:55;100316.28;;;0.19;86.47
84261;BME280;74405;44.868;18.808;2023-12-20T08:19:21;100327.47;;;0.23;85.25
84261;BME280;74405;44.868;18.808;2023-12-20T08:21:46;100333.38;;;0.57;86.32
84261;BME280;74405;44.868;18.808;2023-12-20T08:24:13;100326.38;;;0.74;84.31
84261;BME280;74405;44.868;18.808;2023-12-20T08:26:41;100327.97;;;1.06;84.18
84261;BME280;74405;44.868;18.808;2023-12-20T08:29:07;100324.34;;;1.28;82.55
84261;BME280;74405;44.868;18.808;2023-12-20T08:31:32;100318.25;;;1.37;81.22
84261;BME280;74405;44.868;18.808;2023-12-20T08:33:58;100317.22;;;1.56;81.20
84261;BME280;74405;44.868;18.808;2023-12-20T08:36:23;100318.03;;;1.61;80.69
84261;BME280;74405;44.868;18.808;2023-12-20T08:38:50;100318.53;;;2.00;81.51
84261;BME280;74405;44.868;18.808;2023-12-20T08:41:16;100321.88;;;2.13;80.87
84261;BME280;74405;44.868;18.808;2023-12-20T08:43:43;100327.03;;;2.14;80.70
84261;BME280;74405;44.868;18.808;2023-12-20T08:46:08;100327.09;;;2.06;79.69
84261;BME280;74405;44.868;18.808;2023-12-20T08:48:37;100333.91;;;2.18;80.65
84261;BME280;74405;44.868;18.808;2023-12-20T08:51:04;100339.63;;;2.48;79.20
84261;BME280;74405;44.868;18.808;2023-12-20T08:53:29;100338.38;;;2.78;79.71
84261;BME280;74405;44.868;18.808;2023-12-20T08:55:56;100336.19;;;3.13;78.15
84261;BME280;74405;44.868;18.808;2023-12-20T08:58:23;100334.84;;;3.43;76.77
84261;BME280;74405;44.868;18.808;2023-12-20T09:00:49;100341.56;;;3.55;75.77
84261;BME280;74405;44.868;18.808;2023-12-20T09:03:14;100343.84;;;3.76;75.87
84261;BME280;74405;44.868;18.808;2023-12-20T09:05:40;100343.56;;;3.92;75.69
84261;BME280;74405;44.868;18.808;2023-12-20T09:08:06;100352.78;;;4.09;73.59
84261;BME280;74405;44.868;18.808;2023-12-20T09:10:33;100336.19;;;4.15;72.88
84261;BME280;74405;44.868;18.808;2023-12-20T09:12:58;100336.28;;;4.10;72.99
84261;BME280;74405;44.868;18.808;2023-12-20T09:15:25;100334.53;;;4.11;72.97
84261;BME280;74405;44.868;18.808;2023-12-20T09:17:51;100339.63;;;4.18;72.59
84261;BME280;74405;44.868;18.808;2023-12-20T09:20:16;100327.78;;;4.47;73.88
84261;BME280;74405;44.868;18.808;2023-12-20T09:22:43;100327.03;;;4.40;72.29
84261;BME280;74405;44.868;18.808;2023-12-20T09:25:12;100324.22;;;4.51;72.03
84261;BME280;74405;44.868;18.808;2023-12-20T09:27:39;100322.69;;;4.41;72.12
84261;BME280;74405;44.868;18.808;2023-12-20T09:30:05;100315.94;;;4.31;72.89
84261;BME280;74405;44.868;18.808;2023-12-20T09:32:31;100320.22;;;4.35;72.53
84261;BME280;74405;44.868;18.808;2023-12-20T09:34:57;100312.00;;;4.10;72.83
84261;BME280;74405;44.868;18.808;2023-12-20T09:37:26;100312.41;;;3.88;73.89
84261;BME280;74405;44.868;18.808;2023-12-20T09:39:52;100300.88;;;4.03;74.46
84261;BME280;74405;44.868;18.808;2023-12-20T09:42:44;100304.22;;;4.08;74.05
84261;BME280;74405;44.868;18.808;2023-12-20T09:45:15;100304.25;;;4.07;74.32
84261;BME280;74405;44.868;18.808;2023-12-20T09:47:43;100308.56;;;4.08;74.07
84261;BME280;74405;44.868;18.808;2023-12-20T09:50:09;100306.34;;;4.34;73.44
84261;BME280;74405;44.868;18.808;2023-12-20T09:52:41;100301.28;;;4.68;73.16
84261;BME280;74405;44.868;18.808;2023-12-20T09:55:09;100300.78;;;5.28;71.19
84261;BME280;74405;44.868;18.808;2023-12-20T09:57:35;100298.78;;;5.74;69.19
84261;BME280;74405;44.868;18.808;2023-12-20T10:00:01;100302.25;;;5.74;69.04
84261;BME280;74405;44.868;18.808;2023-12-20T10:02:58;100301.94;;;5.86;68.84
84261;BME280;74405;44.868;18.808;2023-12-20T10:05:28;100289.69;;;7.37;64.88
84261;BME280;74405;44.868;18.808;2023-12-20T10:07:53;100287.16;;;9.06;57.61
84261;BME280;74405;44.868;18.808;2023-12-20T10:10:19;100288.28;;;9.64;56.18
84261;BME280;74405;44.868;18.808;2023-12-20T10:13:02;100288.47;;;9.80;54.88
84261;BME280;74405;44.868;18.808;2023-12-20T10:15:28;100287.91;;;9.73;55.23
84261;BME280;74405;44.868;18.808;2023-12-20T10:17:54;100290.91;;;9.64;54.68
84261;BME280;74405;44.868;18.808;2023-12-20T10:20:22;100301.88;;;9.53;55.38
84261;BME280;74405;44.868;18.808;2023-12-20T10:22:49;100292.09;;;9.57;56.34
84261;BME280;74405;44.868;18.808;2023-12-20T10:25:15;100290.25;;;9.59;56.48
84261;BME280;74405;44.868;18.808;2023-12-20T10:27:41;100294.25;;;10.08;55.17
84261;BME280;74405;44.868;18.808;2023-12-20T10:30:07;100297.97;;;9.84;55.08
84261;BME280;74405;44.868;18.808;2023-12-20T10:32:33;100301.28;;;9.25;56.93
84261;BME280;74405;44.868;18.808;2023-12-20T10:34:59;100293.78;;;8.92;58.34
84261;BME280;74405;44.868;18.808;2023-12-20T10:37:25;100299.81;;;8.73;58.99
84261;BME280;74405;44.868;18.808;2023-12-20T10:39:53;100295.88;;;8.61;59.99
84261;BME280;74405;44.868;18.808;2023-12-20T10:42:25;100312.72;;;8.77;59.38
84261;BME280;74405;44.868;18.808;2023-12-20T10:44:51;100309.38;;;9.41;58.28
84261;BME280;74405;44.868;18.808;2023-12-20T10:47:20;100295.19;;;10.48;56.41
84261;BME280;74405;44.868;18.808;2023-12-20T10:49:46;100296.44;;;11.33;53.65
84261;BME280;74405;44.868;18.808;2023-12-20T10:52:13;100286.69;;;11.70;52.17
84261;BME280;74405;44.868;18.808;2023-12-20T10:54:40;100291.13;;;11.70;50.58
84261;BME280;74405;44.868;18.808;2023-12-20T10:57:06;100289.69;;;11.45;51.84
84261;BME280;74405;44.868;18.808;2023-12-20T10:59:39;100289.84;;;11.59;50.34
84261;BME280;74405;44.868;18.808;2023-12-20T11:02:06;100298.75;;;11.40;49.83
84261;BME280;74405;44.868;18.808;2023-12-20T11:07:37;100301.31;;;11.94;49.71
84261;BME280;74405;44.868;18.808;2023-12-20T11:10:23;100304.31;;;11.87;49.19
84261;BME280;74405;44.868;18.808;2023-12-20T11:13:01;100313.00;;;11.35;49.75
84261;BME280;74405;44.868;18.808;2023-12-20T11:15:36;100308.72;;;10.39;52.77
84261;BME280;74405;44.868;18.808;2023-12-20T11:18:04;100322.84;;;9.96;54.24
84261;BME280;74405;44.868;18.808;2023-12-20T11:23:53;100319.16;;;10.80;53.40
84261;BME280;74405;44.868;18.808;2023-12-20T11:26:26;100308.63;;;11.71;50.57
84261;BME280;74405;44.868;18.808;2023-12-20T11:28:53;100304.84;;;11.76;50.43
84261;BME280;74405;44.868;18.808;2023-12-20T11:31:19;100303.63;;;11.83;49.61
84261;BME280;74405;44.868;18.808;2023-12-20T11:33:45;100303.84;;;12.46;49.27
84261;BME280;74405;44.868;18.808;2023-12-20T11:36:15;100292.50;;;13.56;45.59
84261;BME280;74405;44.868;18.808;2023-12-20T11:38:57;100282.59;;;14.63;43.73
84261;BME280;74405;44.868;18.808;2023-12-20T11:41:23;100271.91;;;15.32;40.95
84261;BME280;74405;44.868;18.808;2023-12-20T11:43:55;100286.28;;;15.42;40.31
84261;BME280;74405;44.868;18.808;2023-12-20T11:46:22;100283.69;;;15.95;40.13
84261;BME280;74405;44.868;18.808;2023-12-20T11:48:48;100282.75;;;16.34;38.75
84261;BME280;74405;44.868;18.808;2023-12-20T11:51:14;100277.13;;;17.13;36.91
84261;BME280;74405;44.868;18.808;2023-12-20T11:53:40;100278.69;;;17.16;37.01
84261;BME280;74405;44.868;18.808;2023-12-20T11:56:08;100275.06;;;16.80;37.78
84261;BME280;74405;44.868;18.808;2023-12-20T11:58:37;100278.66;;;16.92;38.64
84261;BME280;74405;44.868;18.808;2023-12-20T12:01:04;100281.44;;;16.78;38.26
84261;BME280;74405;44.868;18.808;2023-12-20T12:03:32;100285.41;;;16.72;39.16
84261;BME280;74405;44.868;18.808;2023-12-20T12:06:01;100286.56;;;16.43;38.26
84261;BME280;74405;44.868;18.808;2023-12-20T12:08:30;100286.56;;;16.43;38.26
84261;BME280;74405;44.868;18.808;2023-12-20T12:11:54;61077.16;;;-144.82;100.00
84261;BME280;74405;44.868;18.808;2023-12-20T12:15:12;61077.16;;;-144.82;100.00
84261;BME280;74405;44.868;18.808;2023-12-20T12:18:07;61077.16;;;-144.82;100.00
84261;BME280;74405;44.868;18.808;2023-12-20T12:20:45;100286.56;;;16.43;38.26
84261;BME280;74405;44.868;18.808;2023-12-20T12:24:10;61077.16;;;-144.82;100.00
84261;BME280;74405;44.868;18.808;2023-12-20T12:27:34;61077.16;;;-144.82;100.00
84261;BME280;74405;44.868;18.808;2023-12-20T12:30:04;61077.16;;;-144.82;100.00
84261;BME280;74405;44.868;18.808;2023-12-20T12:32:32;100278.69;;;17.87;36.12
84261;BME280;74405;44.868;18.808;2023-12-20T12:34:58;100279.00;;;17.83;35.86
84261;BME280;74405;44.868;18.808;2023-12-20T12:37:23;100269.84;;;17.63;35.86
84261;BME280;74405;44.868;18.808;2023-12-20T12:39:49;100262.53;;;17.43;36.51
84261;BME280;74405;44.868;18.808;2023-12-20T12:42:15;100264.56;;;17.15;37.15
84261;BME280;74405;44.868;18.808;2023-12-20T12:44:41;100265.81;;;15.71;39.44
84261;BME280;74405;44.868;18.808;2023-12-20T12:47:07;100278.03;;;14.22;43.24
84261;BME280;74405;44.868;18.808;2023-12-20T12:49:33;100271.75;;;13.03;46.97